Time;durP1;ratioP1;P1;durP2;ratioP2;P2;SDS_P1;SDS_P2;PMS_P1;PMS_P2;Temp;Humidity;BMP_temperature;BMP_pressure;BME280_temperature;BME280_humidity;BME280_pressure;Samples;Min_cycle;Max_cycle;Signal;HPM_P1;HPM_P2
2023/08/09 00:02:06;;;;;;;3.53;2.22;;;20.30;99.90;;;;;;5034688;28;20025;-60
2023/08/09 00:04:31;;;;;;;3.35;2.30;;;20.30;99.90;;;;;;5034876;28;20065;-60
2023/08/09 00:06:57;;;;;;;4.20;2.20;;;20.30;99.90;;;;;;5034451;28;20087;-60
2023/08/09 00:09:23;;;;;;;4.78;2.30;;;20.10;99.90;;;;;;5034140;28;20091;-60
2023/08/09 00:11:48;;;;;;;6.68;2.63;;;19.90;99.90;;;;;;5034478;28;20029;-60
2023/08/09 00:14:14;;;;;;;4.03;2.53;;;19.80;99.90;;;;;;5042070;28;20433;-60
2023/08/09 00:16:40;;;;;;;4.80;2.30;;;19.60;99.90;;;;;;5053951;28;20513;-60
2023/08/09 00:19:06;;;;;;;3.78;2.28;;;19.40;99.90;;;;;;5053989;28;20059;-60
2023/08/09 00:21:32;;;;;;;5.05;2.60;;;19.30;99.90;;;;;;5054271;28;20055;-60
2023/08/09 00:23:58;;;;;;;3.88;2.47;;;19.20;99.90;;;;;;5053899;28;20075;-61
2023/08/09 00:26:25;;;;;;;5.38;2.50;;;19.10;99.90;;;;;;5054192;28;20440;-60
2023/08/09 00:28:52;;;;;;;3.92;2.10;;;19.00;99.90;;;;;;5054105;28;20029;-60
2023/08/09 00:31:18;;;;;;;4.88;2.50;;;19.00;99.90;;;;;;5054176;28;20032;-60
2023/08/09 00:33:43;;;;;;;3.80;2.28;;;19.10;99.90;;;;;;5054341;28;20033;-60
2023/08/09 00:36:09;;;;;;;3.30;2.35;;;19.00;99.90;;;;;;5053701;28;20029;-60
2023/08/09 00:38:36;;;;;;;5.13;2.10;;;19.00;99.90;;;;;;5053590;28;20017;-60
2023/08/09 00:41:02;;;;;;;5.35;2.40;;;18.90;99.90;;;;;;5054147;28;20032;-60
2023/08/09 00:43:28;;;;;;;3.88;2.50;;;18.80;99.90;;;;;;5053713;28;20413;-60
2023/08/09 00:45:54;;;;;;;3.20;2.30;;;18.80;99.90;;;;;;5051902;28;20091;-61
2023/08/09 00:48:20;;;;;;;5.78;2.60;;;18.70;99.90;;;;;;5052502;28;20060;-61
2023/08/09 00:50:46;;;;;;;3.67;2.20;;;18.60;99.90;;;;;;5053943;28;20024;-60
2023/08/09 00:53:12;;;;;;;4.22;2.30;;;18.50;99.90;;;;;;5053411;28;20393;-60
2023/08/09 00:55:38;;;;;;;3.13;2.22;;;18.70;99.90;;;;;;5053473;28;20033;-60
2023/08/09 00:58:04;;;;;;;3.15;2.08;;;19.00;99.90;;;;;;5053527;28;20021;-60
2023/08/09 01:00:30;;;;;;;3.08;2.28;;;19.10;99.90;;;;;;5053870;28;20043;-60
2023/08/09 01:02:56;;;;;;;4.22;2.17;;;19.20;99.90;;;;;;5053282;28;20446;-60
2023/08/09 01:05:27;;;;;;;4.78;2.50;;;19.20;99.90;;;;;;5053159;28;20116;-60
2023/08/09 01:08:00;;;;;;;3.63;2.05;;;19.10;99.90;;;;;;5052918;28;20029;-60
2023/08/09 01:10:31;;;;;;;4.18;2.22;;;19.10;99.90;;;;;;5053724;28;20028;-60
2023/08/09 01:13:03;;;;;;;3.88;2.55;;;18.90;99.90;;;;;;5053179;28;20727;-60
2023/08/09 01:15:33;;;;;;;6.43;2.30;;;18.90;99.90;;;;;;5053253;28;20029;-60
2023/08/09 01:18:01;;;;;;;4.28;2.28;;;18.90;99.90;;;;;;5053076;28;20496;-60
2023/08/09 01:20:28;;;;;;;3.45;2.17;;;19.00;99.90;;;;;;5053161;28;20537;-60
2023/08/09 01:23:03;;;;;;;3.17;2.15;;;18.90;99.90;;;;;;5052995;28;20040;-61
2023/08/09 01:25:31;;;;;;;3.65;2.00;;;18.70;99.90;;;;;;5052761;28;20057;-60
2023/08/09 01:27:57;;;;;;;5.38;2.60;;;18.40;99.90;;;;;;5053498;28;20394;-61
2023/08/09 01:30:23;;;;;;;5.47;2.40;;;18.20;99.90;;;;;;5052926;28;20029;-60
2023/08/09 01:32:49;;;;;;;4.10;2.15;;;18.10;99.90;;;;;;5052912;28;20435;-60
2023/08/09 01:35:16;;;;;;;2.90;2.10;;;18.00;99.90;;;;;;5052499;28;20123;-60
2023/08/09 01:38:04;;;;;;;4.20;2.20;;;17.90;99.90;;;;;;5052750;28;20056;-61
2023/08/09 01:40:31;;;;;;;4.22;2.30;;;17.90;99.90;;;;;;5052741;28;20033;-60
2023/08/09 01:42:57;;;;;;;4.35;2.58;;;17.70;99.90;;;;;;5052724;28;20029;-61
2023/08/09 01:45:25;;;;;;;5.82;2.40;;;17.70;99.90;;;;;;5052764;28;20044;-60
2023/08/09 01:47:51;;;;;;;4.53;2.80;;;17.70;99.90;;;;;;5052476;28;20395;-61
2023/08/09 01:50:26;;;;;;;3.80;2.30;;;17.60;99.90;;;;;;5052224;28;20090;-60
2023/08/09 01:52:55;;;;;;;6.90;2.90;;;17.60;99.90;;;;;;5052394;28;20028;-60
2023/08/09 01:55:22;;;;;;;4.57;2.30;;;17.60;99.90;;;;;;5052389;28;20032;-61
2023/08/09 01:57:48;;;;;;;4.78;2.45;;;17.50;99.90;;;;;;5051434;28;20106;-58
2023/08/09 02:00:18;;;;;;;5.38;2.40;;;17.50;99.90;;;;;;5052561;28;20512;-60
2023/08/09 02:02:43;;;;;;;3.90;2.40;;;17.50;99.90;;;;;;5052166;28;20029;-59
2023/08/09 02:05:10;;;;;;;5.38;2.55;;;17.40;99.90;;;;;;5051921;28;20041;-60
2023/08/09 02:07:36;;;;;;;3.67;2.47;;;17.40;99.90;;;;;;5052314;28;20051;-60
2023/08/09 02:10:02;;;;;;;5.13;2.38;;;17.30;99.90;;;;;;5052226;28;20102;-60
2023/08/09 02:12:28;;;;;;;4.63;2.50;;;17.50;99.90;;;;;;5050831;28;20032;-60
2023/08/09 02:14:55;;;;;;;4.35;2.47;;;17.50;99.90;;;;;;5051880;28;20037;-60
2023/08/09 02:17:21;;;;;;;4.43;2.65;;;17.60;99.90;;;;;;5052361;28;20021;-60
2023/08/09 02:19:47;;;;;;;3.55;2.33;;;17.60;99.90;;;;;;5051519;28;20111;-60
2023/08/09 02:22:19;;;;;;;3.83;2.42;;;17.50;99.90;;;;;;5052085;28;20099;-60
2023/08/09 02:24:45;;;;;;;5.47;2.28;;;17.60;99.90;;;;;;5051866;28;20053;-60
2023/08/09 02:27:12;;;;;;;3.85;2.15;;;17.50;99.90;;;;;;5052094;28;20547;-60
2023/08/09 02:29:37;;;;;;;3.80;2.60;;;17.50;99.90;;;;;;5051671;28;20021;-60
2023/08/09 02:32:03;;;;;;;4.28;2.25;;;17.60;99.90;;;;;;5051641;28;20513;-60
2023/08/09 02:34:30;;;;;;;5.80;2.83;;;17.60;99.90;;;;;;5051240;28;20477;-61
2023/08/09 02:36:56;;;;;;;4.45;2.47;;;17.70;99.90;;;;;;5052033;28;20032;-60
2023/08/09 02:39:22;;;;;;;5.55;2.20;;;17.70;99.90;;;;;;5051619;28;20028;-60
2023/08/09 02:41:48;;;;;;;5.13;2.60;;;17.50;99.90;;;;;;5051591;28;20117;-60
2023/08/09 02:44:14;;;;;;;3.65;2.47;;;17.20;99.90;;;;;;5051354;28;20047;-60
2023/08/09 02:46:40;;;;;;;4.88;2.58;;;17.00;99.90;;;;;;5051444;28;20397;-60
2023/08/09 02:49:05;;;;;;;4.80;2.75;;;16.80;99.90;;;;;;5051172;28;20121;-60
2023/08/09 02:51:32;;;;;;;3.90;2.55;;;16.70;99.90;;;;;;5051435;28;20025;-60
2023/08/09 02:54:05;;;;;;;4.60;2.90;;;16.60;99.90;;;;;;5051750;28;20059;-60
2023/08/09 02:56:32;;;;;;;5.55;2.78;;;16.60;99.90;;;;;;5051396;28;20500;-60
2023/08/09 02:58:59;;;;;;;5.20;3.10;;;16.50;99.90;;;;;;5051271;28;20460;-60
2023/08/09 03:01:25;;;;;;;5.10;2.88;;;16.40;99.90;;;;;;5051543;28;20021;-60
2023/08/09 03:03:52;;;;;;;4.22;2.53;;;16.40;99.90;;;;;;5049526;28;20120;-60
2023/08/09 03:06:18;;;;;;;5.07;2.58;;;16.40;99.90;;;;;;5051335;28;20039;-59
2023/08/09 03:08:45;;;;;;;6.30;2.50;;;16.30;99.90;;;;;;5051053;28;20070;-60
2023/08/09 03:11:11;;;;;;;3.83;2.25;;;16.30;99.90;;;;;;5051550;28;20033;-60
2023/08/09 03:13:37;;;;;;;5.25;2.70;;;16.20;99.90;;;;;;5050854;28;20032;-60
2023/08/09 03:16:03;;;;;;;7.30;2.90;;;16.10;99.90;;;;;;5051171;28;20110;-60
2023/08/09 03:18:28;;;;;;;3.88;2.58;;;16.10;99.90;;;;;;5051047;28;20036;-60
2023/08/09 03:20:54;;;;;;;5.65;2.70;;;16.10;99.90;;;;;;5050994;28;20032;-60
2023/08/09 03:23:20;;;;;;;4.97;2.63;;;16.10;99.90;;;;;;5051304;28;20033;-61
2023/08/09 03:25:45;;;;;;;4.25;2.42;;;16.10;99.90;;;;;;5050731;28;20048;-60
2023/08/09 03:28:11;;;;;;;3.85;2.60;;;16.10;99.90;;;;;;5051252;28;20486;-60
2023/08/09 03:30:37;;;;;;;4.10;2.58;;;16.30;99.90;;;;;;5051052;28;20394;-60
2023/08/09 03:33:04;;;;;;;4.07;2.60;;;16.50;99.90;;;;;;5050740;28;20383;-61
2023/08/09 03:35:29;;;;;;;4.63;2.60;;;16.60;99.90;;;;;;5051328;28;20029;-60
2023/08/09 03:37:55;;;;;;;3.00;2.42;;;16.60;99.90;;;;;;5050975;28;20025;-60
2023/08/09 03:40:21;;;;;;;5.93;2.40;;;16.70;99.90;;;;;;5050901;28;20036;-60
2023/08/09 03:42:46;;;;;;;6.07;2.90;;;16.70;99.90;;;;;;5050790;28;20414;-60
2023/08/09 03:45:12;;;;;;;5.10;2.58;;;16.60;99.90;;;;;;5050951;28;20043;-60
2023/08/09 03:47:38;;;;;;;5.45;2.63;;;16.60;99.90;;;;;;5050660;28;20021;-60
2023/08/09 03:50:06;;;;;;;5.20;2.65;;;16.70;99.90;;;;;;5050769;28;20048;-60
2023/08/09 03:52:32;;;;;;;5.30;2.58;;;16.70;99.90;;;;;;5050810;28;20040;-60
2023/08/09 03:54:58;;;;;;;4.65;2.55;;;16.60;99.90;;;;;;5050800;28;20083;-60
2023/08/09 03:57:24;;;;;;;4.85;2.40;;;16.40;99.90;;;;;;5050947;28;20024;-61
2023/08/09 03:59:50;;;;;;;3.63;2.63;;;16.20;99.90;;;;;;5050501;28;20040;-60
2023/08/09 04:02:17;;;;;;;4.20;2.50;;;16.20;99.90;;;;;;5051053;28;20017;-61
2023/08/09 04:04:43;;;;;;;3.53;2.33;;;16.20;99.90;;;;;;5050597;28;20394;-61
2023/08/09 04:07:09;;;;;;;3.95;2.85;;;16.20;99.90;;;;;;5050736;28;20402;-61
2023/08/09 04:09:35;;;;;;;5.55;3.28;;;16.10;99.90;;;;;;5051169;28;20021;-60
2023/08/09 04:12:01;;;;;;;4.38;2.78;;;16.00;99.90;;;;;;5050491;28;20060;-60
2023/08/09 04:14:28;;;;;;;3.28;2.58;;;15.90;99.90;;;;;;5050523;28;20069;-60
2023/08/09 04:16:55;;;;;;;4.57;2.65;;;15.80;99.90;;;;;;5050596;28;20075;-60
2023/08/09 04:19:24;;;;;;;4.57;2.70;;;15.70;99.90;;;;;;5050551;28;20024;-60
2023/08/09 04:21:51;;;;;;;4.25;2.65;;;15.60;99.90;;;;;;5053980;28;20154;-59
2023/08/09 04:24:18;;;;;;;4.63;2.75;;;15.60;99.90;;;;;;5054164;28;20053;-60
2023/08/09 04:26:43;;;;;;;5.15;2.85;;;15.50;99.90;;;;;;5054170;28;20055;-60
2023/08/09 04:29:09;;;;;;;7.32;2.92;;;15.50;99.90;;;;;;5053808;28;20104;-60
2023/08/09 04:31:35;;;;;;;6.47;2.95;;;15.40;99.90;;;;;;5054065;28;20397;-60
2023/08/09 04:34:00;;;;;;;5.05;2.58;;;15.50;99.90;;;;;;5054049;28;20020;-61
2023/08/09 04:36:26;;;;;;;4.43;2.90;;;15.40;99.90;;;;;;5054246;28;20025;-60
2023/08/09 04:38:52;;;;;;;5.05;2.67;;;15.40;99.90;;;;;;5053862;28;20029;-59
2023/08/09 04:41:18;;;;;;;6.18;2.88;;;15.30;99.90;;;;;;5053847;28;20397;-60
2023/08/09 04:43:44;;;;;;;4.03;2.58;;;15.40;99.90;;;;;;5053431;28;20029;-60
2023/08/09 04:46:12;;;;;;;5.35;2.47;;;15.60;99.90;;;;;;5054143;28;20021;-60
2023/08/09 04:48:40;;;;;;;5.70;2.70;;;15.90;99.90;;;;;;5053353;28;20021;-60
2023/08/09 04:51:08;;;;;;;5.97;2.63;;;16.20;99.90;;;;;;5054067;28;20037;-60
2023/08/09 04:53:34;;;;;;;3.92;2.60;;;16.40;99.90;;;;;;5053658;28;20044;-60
2023/08/09 04:56:00;;;;;;;3.97;2.78;;;16.30;99.90;;;;;;5053496;28;20071;-59
2023/08/09 04:58:26;;;;;;;5.25;2.80;;;16.30;99.90;;;;;;5053237;28;20017;-60
2023/08/09 05:00:52;;;;;;;3.58;2.78;;;16.30;99.90;;;;;;5053536;28;20078;-60
2023/08/09 05:03:17;;;;;;;4.03;2.63;;;16.30;99.90;;;;;;5054159;28;20017;-60
2023/08/09 05:05:44;;;;;;;4.25;2.90;;;16.20;99.90;;;;;;5053231;28;20131;-60
2023/08/09 05:08:10;;;;;;;3.92;3.03;;;16.20;99.90;;;;;;5053422;28;20418;-60
2023/08/09 05:10:35;;;;;;;4.50;2.90;;;16.30;99.90;;;;;;5053155;28;20029;-60
2023/08/09 05:13:01;;;;;;;4.85;2.70;;;16.40;99.90;;;;;;5052813;28;20025;-60
2023/08/09 05:15:27;;;;;;;4.63;2.80;;;16.20;99.90;;;;;;5053337;28;20036;-61
2023/08/09 05:17:53;;;;;;;6.38;2.70;;;16.10;99.90;;;;;;5053113;28;20086;-60
2023/08/09 05:20:18;;;;;;;4.90;2.90;;;16.00;99.90;;;;;;5052971;28;20039;-60
2023/08/09 05:22:44;;;;;;;4.65;2.53;;;16.00;99.90;;;;;;5053061;28;20029;-60
2023/08/09 05:25:11;;;;;;;4.60;2.70;;;16.00;99.90;;;;;;5052738;28;20051;-60
2023/08/09 05:27:37;;;;;;;6.80;2.80;;;15.90;99.90;;;;;;5052744;28;20083;-60
2023/08/09 05:30:06;;;;;;;4.60;2.90;;;15.90;99.90;;;;;;5052978;28;20025;-60
2023/08/09 05:32:32;;;;;;;4.07;3.05;;;15.90;99.90;;;;;;5051972;28;20043;-61
2023/08/09 05:34:58;;;;;;;4.43;3.00;;;15.80;99.90;;;;;;5051411;28;20116;-60
2023/08/09 05:37:23;;;;;;;3.90;2.70;;;15.80;99.90;;;;;;5052831;28;20457;-60
2023/08/09 05:39:49;;;;;;;5.68;2.90;;;15.80;99.90;;;;;;5053113;28;20036;-60
2023/08/09 05:42:15;;;;;;;4.90;3.00;;;15.80;99.90;;;;;;5052397;28;20025;-60
2023/08/09 05:44:40;;;;;;;4.82;2.83;;;15.80;99.90;;;;;;5052508;28;20040;-61
2023/08/09 05:47:06;;;;;;;4.18;2.53;;;15.80;99.90;;;;;;5051331;28;20023;-60
2023/08/09 05:49:33;;;;;;;4.05;2.70;;;15.80;99.90;;;;;;5052831;28;20487;-60
2023/08/09 05:51:59;;;;;;;5.50;2.85;;;15.80;99.90;;;;;;5052676;28;20021;-61
2023/08/09 05:54:24;;;;;;;5.43;2.80;;;15.80;99.90;;;;;;5052668;28;20029;-60
2023/08/09 05:56:50;;;;;;;5.47;2.92;;;15.80;99.90;;;;;;5052131;28;20025;-60
2023/08/09 05:59:16;;;;;;;4.15;2.70;;;15.80;99.90;;;;;;5052463;28;20032;-60
2023/08/09 06:01:42;;;;;;;4.95;2.63;;;15.90;99.90;;;;;;5052743;28;20040;-60
2023/08/09 06:04:08;;;;;;;4.75;3.17;;;16.20;99.90;;;;;;5051793;28;20437;-60
2023/08/09 06:06:33;;;;;;;4.15;2.65;;;16.40;99.90;;;;;;5052667;28;20124;-60
2023/08/09 06:08:59;;;;;;;3.63;2.72;;;16.50;99.90;;;;;;5052183;28;20402;-60
2023/08/09 06:11:25;;;;;;;4.35;2.92;;;16.70;99.90;;;;;;5051806;28;20453;-60
2023/08/09 06:13:51;;;;;;;4.70;2.50;;;16.70;99.90;;;;;;5052327;28;20489;-60
2023/08/09 06:16:16;;;;;;;5.43;2.97;;;16.70;99.90;;;;;;5051999;28;20045;-60
2023/08/09 06:18:42;;;;;;;5.20;2.55;;;16.80;99.90;;;;;;5051985;28;20457;-60
2023/08/09 06:21:08;;;;;;;5.15;2.60;;;16.80;99.90;;;;;;5051912;28;20075;-60
2023/08/09 06:23:34;;;;;;;5.18;2.85;;;16.90;99.90;;;;;;5052176;28;20029;-60
2023/08/09 06:26:00;;;;;;;4.38;2.50;;;17.00;99.90;;;;;;5051359;28;20045;-60
2023/08/09 06:28:25;;;;;;;5.63;2.78;;;17.00;99.90;;;;;;5051821;28;20059;-60
2023/08/09 06:30:51;;;;;;;7.15;2.97;;;16.90;99.90;;;;;;5051771;28;20025;-60
2023/08/09 06:33:17;;;;;;;4.07;2.70;;;16.80;99.90;;;;;;5051690;28;20029;-60
2023/08/09 06:35:42;;;;;;;4.68;2.63;;;16.70;99.90;;;;;;5051640;28;20111;-60
2023/08/09 06:38:08;;;;;;;9.68;3.22;;;16.60;99.90;;;;;;5051585;28;20402;-60
2023/08/09 06:40:34;;;;;;;4.55;2.83;;;16.60;99.90;;;;;;5051737;28;20029;-61
2023/08/09 06:43:00;;;;;;;5.03;2.70;;;16.60;99.90;;;;;;5051216;28;20028;-60
2023/08/09 06:45:25;;;;;;;9.38;2.67;;;16.70;99.90;;;;;;5051318;28;20052;-60
2023/08/09 06:47:51;;;;;;;6.32;2.80;;;16.70;99.90;;;;;;5051486;28;20021;-60
2023/08/09 06:50:17;;;;;;;5.72;2.88;;;16.70;99.90;;;;;;5051971;28;20025;-60
2023/08/09 06:52:42;;;;;;;4.07;2.53;;;16.80;99.90;;;;;;5051356;28;20036;-60
2023/08/09 06:55:09;;;;;;;7.00;2.97;;;16.90;99.90;;;;;;5051001;28;20087;-60
2023/08/09 06:57:35;;;;;;;4.90;2.30;;;17.00;99.90;;;;;;5051293;28;20032;-60
2023/08/09 07:00:02;;;;;;;4.65;3.17;;;17.10;99.90;;;;;;5051641;28;20025;-60
2023/08/09 07:02:28;;;;;;;3.75;2.40;;;17.20;99.90;;;;;;5051438;28;20049;-60
2023/08/09 07:04:59;;;;;;;6.25;2.60;;;17.30;99.90;;;;;;5051055;28;20114;-60
2023/08/09 07:07:25;;;;;;;4.93;2.75;;;17.40;99.90;;;;;;5050985;28;20025;-60
2023/08/09 07:09:52;;;;;;;3.90;2.50;;;17.50;99.90;;;;;;5051298;28;20036;-60
2023/08/09 07:12:19;;;;;;;4.30;2.40;;;17.60;99.90;;;;;;5051135;28;20494;-60
2023/08/09 07:14:46;;;;;;;4.40;2.50;;;17.70;99.90;;;;;;5051001;28;20040;-60
2023/08/09 07:17:12;;;;;;;4.13;2.40;;;17.90;99.90;;;;;;5051141;28;20135;-60
2023/08/09 07:19:37;;;;;;;5.03;2.42;;;18.10;99.90;;;;;;5050947;28;20490;-60
2023/08/09 07:22:03;;;;;;;4.38;2.45;;;18.30;99.90;;;;;;5051232;28;20482;-60
2023/08/09 07:24:29;;;;;;;4.97;2.30;;;18.50;99.90;;;;;;5050287;28;20048;-60
2023/08/09 07:26:55;;;;;;;3.65;2.20;;;18.60;99.90;;;;;;5051462;28;20501;-60
2023/08/09 07:29:20;;;;;;;4.20;2.30;;;18.80;99.90;;;;;;5051003;28;20100;-60
2023/08/09 07:31:46;;;;;;;3.55;2.30;;;18.90;99.90;;;;;;5050921;28;20075;-60
2023/08/09 07:34:12;;;;;;;6.07;2.47;;;19.10;99.90;;;;;;5050811;28;20030;-60
2023/08/09 07:36:37;;;;;;;4.70;2.70;;;19.40;99.90;;;;;;5051253;28;20025;-60
2023/08/09 07:39:03;;;;;;;6.32;2.30;;;19.40;99.90;;;;;;5050556;28;20032;-60
2023/08/09 07:41:29;;;;;;;3.80;2.30;;;19.60;99.90;;;;;;5050908;28;20490;-60
2023/08/09 07:43:55;;;;;;;6.80;2.47;;;19.70;99.90;;;;;;5050792;28;20028;-61
2023/08/09 07:46:20;;;;;;;6.45;2.55;;;19.90;99.90;;;;;;5051258;28;20060;-61
2023/08/09 07:48:46;;;;;;;5.60;2.30;;;19.80;99.90;;;;;;5050920;28;20028;-60
2023/08/09 07:51:12;;;;;;;4.97;2.60;;;19.80;99.90;;;;;;5050830;28;20462;-61
2023/08/09 07:53:39;;;;;;;7.35;2.97;;;19.70;99.90;;;;;;5050343;28;20029;-60
2023/08/09 07:56:04;;;;;;;5.28;2.75;;;19.70;99.90;;;;;;5052782;28;20490;-60
2023/08/09 07:58:30;;;;;;;3.97;3.05;;;19.80;99.90;;;;;;5054680;28;20025;-60
2023/08/09 08:00:56;;;;;;;4.65;3.05;;;19.80;99.90;;;;;;5054536;28;20021;-61
2023/08/09 08:03:22;;;;;;;5.47;3.10;;;19.80;99.90;;;;;;5054438;28;20030;-60
2023/08/09 08:05:47;;;;;;;6.05;2.80;;;19.90;99.90;;;;;;5054836;28;20502;-60
2023/08/09 08:08:14;;;;;;;7.72;3.08;;;20.00;99.90;;;;;;5054281;28;20375;-61
2023/08/09 08:10:41;;;;;;;6.72;2.92;;;20.10;99.90;;;;;;5054439;28;20379;-61
2023/08/09 08:13:07;;;;;;;5.82;2.95;;;20.20;99.90;;;;;;5054816;28;20490;-60
2023/08/09 08:15:32;;;;;;;6.18;2.80;;;20.30;99.90;;;;;;5053981;28;20029;-60
2023/08/09 08:17:58;;;;;;;5.20;2.80;;;20.40;99.90;;;;;;5054602;28;20397;-60
2023/08/09 08:20:24;;;;;;;4.35;2.78;;;20.50;99.90;;;;;;5054050;28;20559;-60
2023/08/09 08:22:51;;;;;;;6.50;3.08;;;20.50;99.90;;;;;;5053992;28;20025;-60
2023/08/09 08:25:17;;;;;;;8.02;3.33;;;20.60;99.90;;;;;;5054078;28;20053;-60
2023/08/09 08:27:45;;;;;;;6.80;3.67;;;20.80;99.90;;;;;;5054068;28;20543;-60
2023/08/09 08:30:19;;;;;;;6.55;3.00;;;20.90;99.90;;;;;;5054068;28;20517;-60
2023/08/09 08:32:48;;;;;;;5.85;3.47;;;21.00;99.90;;;;;;5053822;28;20033;-59
2023/08/09 08:35:19;;;;;;;5.32;3.00;;;21.20;99.90;;;;;;5053594;28;20029;-60
2023/08/09 08:37:46;;;;;;;7.90;3.03;;;21.40;99.90;;;;;;5054400;28;20044;-60
2023/08/09 08:40:17;;;;;;;5.22;3.55;;;21.70;99.90;;;;;;5053895;28;20425;-60
2023/08/09 08:42:44;;;;;;;9.38;3.40;;;21.80;99.90;;;;;;5053886;28;20117;-60
2023/08/09 08:45:11;;;;;;;4.28;2.97;;;22.00;99.90;;;;;;5053763;28;20028;-60
2023/08/09 08:47:42;;;;;;;7.45;3.35;;;22.00;99.90;;;;;;5053597;28;20025;-60
2023/08/09 08:50:10;;;;;;;5.15;3.00;;;22.10;99.90;;;;;;5053343;28;20044;-60
2023/08/09 08:52:38;;;;;;;7.15;3.25;;;22.20;99.90;;;;;;5054060;28;20079;-60
2023/08/09 08:55:11;;;;;;;5.72;3.25;;;22.20;99.90;;;;;;5053492;28;20035;-60
2023/08/09 08:57:38;;;;;;;6.22;3.17;;;22.40;99.90;;;;;;5053412;28;20036;-60
2023/08/09 09:00:17;;;;;;;5.55;3.13;;;22.60;99.90;;;;;;5053483;28;20041;-61
2023/08/09 09:02:44;;;;;;;5.07;3.50;;;22.70;99.90;;;;;;5053413;28;20021;-60
2023/08/09 09:05:11;;;;;;;5.68;3.33;;;22.80;99.90;;;;;;5053459;28;20033;-60
2023/08/09 09:07:38;;;;;;;5.55;2.97;;;22.90;99.90;;;;;;5052979;28;20100;-60
2023/08/09 09:10:05;;;;;;;4.55;3.03;;;23.00;99.90;;;;;;5053437;28;20421;-60
2023/08/09 09:12:35;;;;;;;4.28;2.83;;;22.90;99.90;;;;;;5053399;28;20423;-61
2023/08/09 09:15:04;;;;;;;5.97;3.03;;;23.00;99.90;;;;;;5053091;28;20052;-61
2023/08/09 09:17:38;;;;;;;4.60;2.65;;;23.10;99.90;;;;;;5053450;28;20025;-60
2023/08/09 09:20:10;;;;;;;4.13;2.50;;;23.30;99.90;;;;;;5052604;28;20029;-61
2023/08/09 09:22:35;;;;;;;5.30;2.47;;;23.30;99.90;;;;;;5053129;28;20055;-60
2023/08/09 09:25:02;;;;;;;2.45;2.25;;;23.50;99.90;;;;;;5052728;28;20514;-60
2023/08/09 09:27:30;;;;;;;3.05;2.30;;;23.60;99.90;;;;;;5053054;28;20045;-61
2023/08/09 09:30:12;;;;;;;3.15;2.45;;;23.60;99.90;;;;;;5053152;28;20401;-60
2023/08/09 09:32:42;;;;;;;2.78;2.50;;;23.70;99.90;;;;;;5053209;28;20021;-61
2023/08/09 09:35:08;;;;;;;4.63;2.45;;;23.90;99.90;;;;;;5052530;28;20029;-61
2023/08/09 09:37:35;;;;;;;3.40;2.33;;;24.00;99.90;;;;;;5052843;28;20025;-61
2023/08/09 09:40:02;;;;;;;4.20;2.80;;;24.00;99.90;;;;;;5052749;28;20091;-61
2023/08/09 09:42:32;;;;;;;3.42;2.30;;;24.20;99.90;;;;;;5052764;28;20039;-60
2023/08/09 09:45:08;;;;;;;3.25;2.30;;;24.40;99.90;;;;;;5053169;28;20037;-60
2023/08/09 09:47:39;;;;;;;4.03;2.38;;;24.50;99.90;;;;;;5052807;28;20051;-61
2023/08/09 09:50:07;;;;;;;2.88;2.30;;;24.50;99.90;;;;;;5052238;28;20032;-61
2023/08/09 09:52:35;;;;;;;4.47;2.30;;;24.50;99.90;;;;;;5052958;28;20040;-60
2023/08/09 09:55:01;;;;;;;4.03;2.15;;;24.60;99.90;;;;;;5052574;28;20047;-61
2023/08/09 09:57:27;;;;;;;2.42;2.22;;;24.80;99.90;;;;;;5052522;28;20029;-61
2023/08/09 09:59:59;;;;;;;3.75;2.40;;;24.90;99.90;;;;;;5052247;28;20025;-60
2023/08/09 10:02:31;;;;;;;3.47;2.30;;;25.00;99.90;;;;;;5052063;28;20083;-60
2023/08/09 10:04:59;;;;;;;2.63;2.38;;;25.10;99.90;;;;;;5052465;28;20063;-60
2023/08/09 10:07:30;;;;;;;3.53;2.30;;;25.30;99.90;;;;;;5052214;28;20103;-60
2023/08/09 10:10:00;;;;;;;4.55;2.42;;;25.40;99.90;;;;;;5052168;28;20559;-61
2023/08/09 10:12:26;;;;;;;5.32;2.53;;;25.40;99.90;;;;;;5052495;28;20033;-60
2023/08/09 10:14:54;;;;;;;4.97;2.50;;;25.60;99.90;;;;;;5051750;28;20099;-60
2023/08/09 10:17:22;;;;;;;3.78;2.40;;;25.70;99.90;;;;;;5051501;28;20036;-60
2023/08/09 10:19:49;;;;;;;2.97;2.17;;;25.90;99.90;;;;;;5050648;28;20051;-60
2023/08/09 10:22:18;;;;;;;3.33;2.22;;;26.20;99.90;;;;;;5052043;28;20032;-61
2023/08/09 10:24:47;;;;;;;2.50;2.30;;;26.20;99.90;;;;;;5051640;28;20049;-60
2023/08/09 10:27:13;;;;;;;5.05;2.25;;;26.30;99.90;;;;;;5051978;28;20025;-60
2023/08/09 10:29:41;;;;;;;2.92;2.10;;;26.30;99.90;;;;;;5051709;28;20109;-60
2023/08/09 10:32:07;;;;;;;4.38;2.33;;;26.40;99.90;;;;;;5051419;28;20021;-61
2023/08/09 10:34:36;;;;;;;3.47;2.00;;;26.40;99.90;;;;;;5052113;28;20534;-60
2023/08/09 10:37:06;;;;;;;4.25;2.38;;;26.50;99.90;;;;;;5051707;28;20033;-61
2023/08/09 10:39:33;;;;;;;6.50;3.45;;;26.50;99.90;;;;;;5051661;28;20032;-61
2023/08/09 10:42:01;;;;;;;5.20;3.17;;;26.60;99.90;;;;;;5051671;28;20017;-61
2023/08/09 10:44:43;;;;;;;5.22;3.13;;;26.50;99.90;;;;;;5051380;28;20032;-61
2023/08/09 10:47:11;;;;;;;4.32;3.17;;;26.60;99.90;;;;;;5051208;28;20040;-60
2023/08/09 10:49:48;;;;;;;6.03;3.10;;;26.70;99.90;;;;;;5051373;28;20025;-61
2023/08/09 10:52:16;;;;;;;4.03;2.97;;;26.80;99.90;;;;;;5051847;28;20061;-61
2023/08/09 10:54:42;;;;;;;5.40;3.22;;;27.00;99.90;;;;;;5051384;28;20021;-61
2023/08/09 10:57:10;;;;;;;4.10;3.10;;;27.10;99.90;;;;;;5051477;28;20100;-61
2023/08/09 10:59:43;;;;;;;5.32;3.10;;;27.10;99.90;;;;;;5051105;28;20425;-61
2023/08/09 11:02:09;;;;;;;4.22;3.10;;;27.20;99.90;;;;;;5050955;28;20113;-60
2023/08/09 11:04:35;;;;;;;4.13;3.08;;;27.30;99.90;;;;;;5051520;28;20037;-61
2023/08/09 11:07:02;;;;;;;3.65;2.70;;;27.40;99.90;;;;;;5051115;28;20126;-61
2023/08/09 11:09:31;;;;;;;4.60;3.15;;;27.70;99.90;;;;;;5051098;28;20021;-61
2023/08/09 11:11:58;;;;;;;3.63;2.90;;;27.70;99.90;;;;;;5051220;28;20028;-60
2023/08/09 11:14:25;;;;;;;3.72;3.10;;;27.60;99.90;;;;;;5051060;28;20112;-61
2023/08/09 11:16:52;;;;;;;4.82;3.13;;;27.50;99.90;;;;;;5051198;28;20029;-61
2023/08/09 11:19:24;;;;;;;4.82;3.05;;;27.90;99.90;;;;;;5051105;28;20025;-60
2023/08/09 11:21:52;;;;;;;3.60;3.00;;;28.20;99.90;;;;;;5051170;28;20033;-61
2023/08/09 11:24:20;;;;;;;3.53;2.95;;;28.40;99.90;;;;;;5050784;28;20047;-60
2023/08/09 11:26:52;;;;;;;4.20;2.95;;;28.50;99.90;;;;;;5050933;28;20379;-61
2023/08/09 11:29:19;;;;;;;2.60;2.40;;;28.60;99.90;;;;;;5051825;28;20056;-61
2023/08/09 11:31:47;;;;;;;4.60;2.58;;;28.60;99.90;;;;;;5055666;28;20536;-60
2023/08/09 11:34:15;;;;;;;3.05;2.42;;;28.70;99.90;;;;;;5055112;28;20029;-60
2023/08/09 11:36:46;;;;;;;3.85;3.05;;;28.90;99.90;;;;;;5054960;28;20107;-60
2023/08/09 11:39:13;;;;;;;3.72;3.10;;;29.00;99.90;;;;;;5055566;28;20025;-60
2023/08/09 11:41:54;;;;;;;3.83;2.95;;;29.10;99.90;;;;;;5054882;28;20452;-60
2023/08/09 11:44:43;;;;;;;3.97;3.33;;;29.20;99.90;;;;;;5054501;28;20033;-61
2023/08/09 11:47:09;;;;;;;4.15;3.10;;;29.40;99.90;;;;;;5054969;28;20113;-61
2023/08/09 11:49:35;;;;;;;3.20;2.70;;;29.50;99.90;;;;;;5054823;28;20025;-61
2023/08/09 11:52:01;;;;;;;3.95;2.97;;;29.50;99.90;;;;;;5054841;28;20025;-60
2023/08/09 11:54:28;;;;;;;4.75;2.80;;;29.30;99.90;;;;;;5054737;28;20029;-61
2023/08/09 11:56:55;;;;;;;4.85;2.78;;;29.40;99.90;;;;;;5054985;28;20528;-60
2023/08/09 11:59:23;;;;;;;3.90;2.60;;;29.70;99.90;;;;;;5054421;28;20559;-61
2023/08/09 12:01:52;;;;;;;3.53;3.13;;;29.70;99.90;;;;;;5054714;28;20025;-61
2023/08/09 12:04:22;;;;;;;3.33;2.53;;;29.90;99.90;;;;;;5054403;28;20021;-61
2023/08/09 12:06:56;;;;;;;3.40;2.90;;;29.90;99.90;;;;;;5053227;28;20032;-61
2023/08/09 12:09:42;;;;;;;3.58;3.00;;;30.00;99.90;;;;;;5054865;28;20021;-60
2023/08/09 12:12:18;;;;;;;6.13;3.13;;;30.10;99.90;;;;;;5054670;28;20612;-61
2023/08/09 12:14:45;;;;;;;4.28;3.30;;;30.10;99.90;;;;;;5053824;28;20029;-61
2023/08/09 12:17:28;;;;;;;5.80;3.00;;;30.10;99.90;;;;;;5054411;28;20442;-58
2023/08/09 12:20:06;;;;;;;3.65;3.00;;;30.20;99.90;;;;;;5054314;28;20072;-58
2023/08/09 12:22:33;;;;;;;3.08;2.78;;;30.10;99.90;;;;;;5054664;28;20025;-58
2023/08/09 12:24:59;;;;;;;4.43;3.30;;;30.20;99.90;;;;;;5053995;28;20048;-58
2023/08/09 12:27:26;;;;;;;2.97;2.42;;;30.10;99.90;;;;;;5053783;28;20028;-58
2023/08/09 12:29:52;;;;;;;3.70;3.17;;;30.40;99.90;;;;;;5054196;28;20037;-58
2023/08/09 12:32:18;;;;;;;4.15;3.10;;;30.50;99.90;;;;;;5054412;28;20028;-58
2023/08/09 12:34:45;;;;;;;3.55;3.22;;;30.60;99.90;;;;;;5053924;28;20029;-59
2023/08/09 12:37:11;;;;;;;3.75;3.30;;;30.80;99.90;;;;;;5054073;28;20029;-58
2023/08/09 12:39:36;;;;;;;3.30;2.75;;;30.80;99.90;;;;;;5053819;28;20104;-59
2023/08/09 12:42:02;;;;;;;6.22;3.40;;;30.90;99.90;;;;;;5052793;28;20116;-58
2023/08/09 12:44:28;;;;;;;3.10;2.83;;;31.10;99.90;;;;;;5053769;28;20032;-58
2023/08/09 12:46:54;;;;;;;3.75;2.97;;;31.20;99.90;;;;;;5054186;28;20044;-58
2023/08/09 12:49:20;;;;;;;3.40;3.10;;;31.30;99.90;;;;;;5053810;28;20075;-58